Terminal Aerodrome Forecast
Issued by NWS

Home | Current Version | Previous Version | Text Only | Print | Product List | Glossary Off
Versions: 1 2 3 4 5 6 7 8 9 10 11 12 13 14 15 16

024
FTUS43 KAPX 251120
TAFTVC
TAF
KTVC 251120Z 2512/2612 16006KT P6SM SCT100
     FM251400 15007KT P6SM BKN120
     FM260000 15009KT P6SM SHRA OVC090 WS020/17035KT
     FM260200 16010G20KT 6SM SHRA BR OVC050 WS020/17035KT
     FM260600 19007KT P6SM SHRA OVC015
     FM260900 21006KT P6SM OVC012
     FM261100 24007KT P6SM OVC015=

USA.gov is the U.S. government's official web portal to all federal, state and local government web resources and services.